Aviation Digital Data Service (ADDS)

Output produced by METARs form (0431 UTC 26 April 2019)
found at http://www.aviationweather.gov/metar/data/
 
Forecast for: VOCI (COCHIN INTL , IN)
Text: TAF VOCI 260200Z 2603/2612 27010KT 5000 HZ SCT010 FEW025CB BKN080
Forecast period: 0300 to 1200 UTC 26 April 2019
Forecast type: FROM: standard forecast or significant change
Winds: from the W (270 degrees) at 12 MPH (10 knots; 5.1 m/s)
Visibility: 3 miles (5 km)
Ceiling: 8000 feet AGL
Clouds: scattered clouds at 1000 feet AGL
few clouds at 2500 feet AGL
broken clouds at 8000 feet AGL
Weather: HZ  (haze)
Text: TEMPO 2608/2612 27010G20KT 2000 TSRA RA
Forecast period: 0800 to 1200 UTC 26 April 2019
Forecast type: TEMPORARY: The following changes expected for less than half the time period
Winds: from the W (270 degrees) at 12 MPH (10 knots; 5.1 m/s)
gusting to 23 MPH (20 knots; 10.3 m/s)
Visibility: 1.24 miles (2.00 km)
Ceiling: unknown
Clouds: missing
Weather: TSRA RA  (rain associated with thunderstorm(s), moderate rain)